createdAt,value
2022-11-20T00:01:18.384Z,-4.26
2022-11-20T00:03:45.634Z,-4.31
2022-11-20T00:06:14.672Z,-4.23
2022-11-20T00:08:41.881Z,-4.29
2022-11-20T00:11:15.459Z,-4.36
2022-11-20T00:13:43.133Z,-4.37
2022-11-20T00:16:11.900Z,-4.38
2022-11-20T00:18:38.414Z,-4.35
2022-11-20T00:21:07.223Z,-4.35
2022-11-20T00:23:34.258Z,-4.23
2022-11-20T00:26:07.807Z,-4.26
2022-11-20T00:28:34.384Z,-4.30
2022-11-20T00:31:02.962Z,-4.25
2022-11-20T00:33:30.003Z,-4.18
2022-11-20T00:36:07.748Z,-4.18
2022-11-20T00:38:35.009Z,-4.25
2022-11-20T00:41:05.663Z,-4.21
2022-11-20T00:43:32.112Z,-4.18
2022-11-20T00:45:59.338Z,-4.14
2022-11-20T00:48:26.434Z,-4.18
2022-11-20T00:50:53.820Z,-4.15
2022-11-20T00:53:20.820Z,-4.18
2022-11-20T00:56:02.707Z,-4.22
2022-11-20T00:58:37.419Z,-4.15
2022-11-20T01:01:25.624Z,-4.14
2022-11-20T01:03:54.256Z,-4.12
2022-11-20T01:06:23.519Z,-4.12
2022-11-20T01:08:53.266Z,-4.17
2022-11-20T01:11:22.753Z,-4.15
2022-11-20T01:13:50.807Z,-4.11
2022-11-20T01:16:32.559Z,-4.06
2022-11-20T01:19:01.223Z,-4.08
2022-11-20T01:21:33.551Z,-4.07
2022-11-20T01:24:01.028Z,-4.12
2022-11-20T01:26:31.107Z,-4.17
2022-11-20T01:28:58.328Z,-4.20
2022-11-20T01:31:31.238Z,-4.19
2022-11-20T01:34:00.465Z,-4.26
2022-11-20T01:36:29.169Z,-4.26
2022-11-20T01:38:58.457Z,-4.20
2022-11-20T01:41:44.838Z,-4.25
2022-11-20T01:44:15.909Z,-4.34
2022-11-20T01:47:04.646Z,-4.32
2022-11-20T01:49:47.604Z,-4.33
2022-11-20T01:52:23.998Z,-4.35
2022-11-20T01:55:15.644Z,-4.29
2022-11-20T01:57:42.724Z,-4.27
2022-11-20T02:00:14.941Z,-4.32
2022-11-20T02:02:49.032Z,-4.37
2022-11-20T02:05:29.396Z,-4.37
2022-11-20T02:07:58.473Z,-4.36
2022-11-20T02:10:25.803Z,-4.41
2022-11-20T02:13:11.322Z,-4.37
2022-11-20T02:15:38.239Z,-4.33
2022-11-20T02:18:06.545Z,-4.33
2022-11-20T02:20:33.486Z,-4.34
2022-11-20T02:23:13.128Z,-4.36
2022-11-20T02:25:42.040Z,-4.32
2022-11-20T02:28:08.593Z,-4.34
2022-11-20T02:30:35.055Z,-4.30
2022-11-20T02:33:01.536Z,-4.32
2022-11-20T02:35:27.944Z,-4.29
2022-11-20T02:37:56.849Z,-4.31
2022-11-20T02:40:24.076Z,-4.29
2022-11-20T02:42:54.580Z,-4.34
2022-11-20T02:45:21.380Z,-4.40
2022-11-20T02:47:47.851Z,-4.34
2022-11-20T02:50:14.382Z,-4.31
2022-11-20T02:52:40.880Z,-4.33
2022-11-20T02:55:07.766Z,-4.33
2022-11-20T02:57:34.611Z,-4.31
2022-11-20T03:00:01.323Z,-4.28
2022-11-20T03:02:31.455Z,-4.14
2022-11-20T03:04:58.129Z,-4.12
2022-11-20T03:07:25.086Z,-4.05
2022-11-20T03:09:52.176Z,-4.04
2022-11-20T03:12:19.099Z,-3.99
2022-11-20T03:14:50.175Z,-3.94
2022-11-20T03:17:19.267Z,-3.92
2022-11-20T03:19:45.751Z,-3.94
2022-11-20T03:22:12.256Z,-3.91
2022-11-20T03:24:38.734Z,-3.85
2022-11-20T03:27:05.199Z,-3.76
2022-11-20T03:29:31.680Z,-3.75
2022-11-20T03:31:58.218Z,-3.73
2022-11-20T03:34:25.035Z,-3.74
2022-11-20T03:36:51.554Z,-3.72
2022-11-20T03:39:18.194Z,-3.70
2022-11-20T03:41:44.804Z,-3.66
2022-11-20T03:44:12.545Z,-3.60
2022-11-20T03:46:39.485Z,-3.54
2022-11-20T03:49:06.553Z,-3.50
2022-11-20T03:51:35.145Z,-3.51
2022-11-20T03:54:07.847Z,-3.61
2022-11-20T03:56:36.988Z,-3.55
2022-11-20T03:59:03.967Z,-3.55
2022-11-20T04:01:33.829Z,-3.51
2022-11-20T04:04:00.444Z,-3.48
2022-11-20T04:06:29.468Z,-3.47
2022-11-20T04:08:57.027Z,-3.48
2022-11-20T04:11:32.059Z,-3.45
2022-11-20T04:14:04.047Z,-3.39
2022-11-20T04:16:32.201Z,-3.33
2022-11-20T04:19:01.270Z,-3.33
2022-11-20T04:21:28.113Z,-3.30
2022-11-20T04:23:55.171Z,-3.31
2022-11-20T04:26:24.226Z,-3.27
2022-11-20T04:28:50.932Z,-3.36
2022-11-20T04:31:19.764Z,-3.36
2022-11-20T04:33:46.608Z,-3.33
2022-11-20T04:36:16.401Z,-3.31
2022-11-20T04:38:43.784Z,-3.29
2022-11-20T04:41:18.949Z,-3.31
2022-11-20T04:43:50.561Z,-3.32
2022-11-20T04:46:18.506Z,-3.28
2022-11-20T04:48:45.521Z,-3.17
2022-11-20T04:51:12.732Z,-3.09
2022-11-20T04:53:42.948Z,-3.10
2022-11-20T04:56:11.548Z,-3.16
2022-11-20T04:58:39.474Z,-3.14
2022-11-20T05:01:15.016Z,-3.18
2022-11-20T05:03:42.930Z,-3.27
2022-11-20T05:06:11.808Z,-3.19
2022-11-20T05:08:38.424Z,-3.13
2022-11-20T05:11:10.120Z,-3.29
2022-11-20T05:13:37.078Z,-3.34
2022-11-20T05:16:13.333Z,-3.15
2022-11-20T05:18:41.270Z,-3.27
2022-11-20T05:21:09.250Z,-3.19
2022-11-20T05:23:36.756Z,-3.17
2022-11-20T05:26:04.062Z,-3.06
2022-11-20T05:28:31.546Z,-3.10
2022-11-20T05:31:05.819Z,-3.11
2022-11-20T05:33:32.588Z,-3.03
2022-11-20T05:35:59.517Z,-2.97
2022-11-20T05:38:25.991Z,-3.07
2022-11-20T05:40:52.763Z,-3.04
2022-11-20T05:43:19.400Z,-2.98
2022-11-20T05:45:55.786Z,-2.99
2022-11-20T05:48:22.521Z,-3.02
2022-11-20T05:50:49.440Z,-2.95
2022-11-20T05:53:15.906Z,-2.92
2022-11-20T05:55:42.424Z,-2.99
2022-11-20T05:58:08.943Z,-2.92
2022-11-20T06:00:36.331Z,-2.90
2022-11-20T06:03:03.657Z,-2.97
2022-11-20T06:05:30.169Z,-2.98
2022-11-20T06:07:56.914Z,-3.03
2022-11-20T06:10:23.366Z,-3.00
2022-11-20T06:12:49.815Z,-3.00
2022-11-20T06:15:16.319Z,-2.81
2022-11-20T06:17:42.783Z,-2.92
2022-11-20T06:20:09.933Z,-2.91
2022-11-20T06:22:36.459Z,-2.89
2022-11-20T06:25:02.981Z,-2.93
2022-11-20T06:27:29.608Z,-3.00
2022-11-20T06:29:56.033Z,-2.92
2022-11-20T06:32:22.777Z,-2.80
2022-11-20T06:34:49.448Z,-2.67
2022-11-20T06:37:15.919Z,-2.77
2022-11-20T06:39:42.328Z,-2.82
2022-11-20T06:42:08.776Z,-2.81
2022-11-20T06:44:35.223Z,-2.66
2022-11-20T06:47:02.595Z,-2.73
2022-11-20T06:49:29.432Z,-2.72
2022-11-20T06:51:55.971Z,-2.56
2022-11-20T06:54:22.724Z,-2.58
2022-11-20T06:56:49.636Z,-2.61
2022-11-20T06:59:16.089Z,-2.60
2022-11-20T07:01:42.653Z,-2.59
2022-11-20T07:04:09.121Z,-2.55
2022-11-20T07:06:35.608Z,-2.61
2022-11-20T07:09:02.603Z,-2.55
2022-11-20T07:11:29.267Z,-2.63
2022-11-20T07:13:55.813Z,-2.57
2022-11-20T07:16:22.660Z,-2.81
2022-11-20T07:18:51.066Z,-2.84
2022-11-20T07:21:18.160Z,-2.72
2022-11-20T07:23:44.630Z,-2.71
2022-11-20T07:26:12.231Z,-2.69
2022-11-20T07:28:38.710Z,-2.70
2022-11-20T07:31:07.575Z,-2.67
2022-11-20T07:33:34.076Z,-2.64
2022-11-20T07:36:01.188Z,-2.66
2022-11-20T07:38:28.580Z,-2.59
2022-11-20T07:40:58.810Z,-2.55
2022-11-20T07:43:26.176Z,-2.53
2022-11-20T07:45:52.945Z,-2.60
2022-11-20T07:48:19.587Z,-2.59
2022-11-20T07:50:46.650Z,-2.64
2022-11-20T07:53:14.742Z,-2.62
2022-11-20T07:55:41.250Z,-2.66
2022-11-20T07:58:07.808Z,-2.69
2022-11-20T08:00:34.408Z,-2.67
2022-11-20T08:03:04.430Z,-2.55
2022-11-20T08:05:31.045Z,-2.54
2022-11-20T08:07:57.499Z,-2.49
2022-11-20T08:10:24.284Z,-2.41
2022-11-20T08:13:11.984Z,-2.30
2022-11-20T08:15:39.945Z,-2.12
2022-11-20T08:18:29.904Z,-2.25
2022-11-20T08:20:55.601Z,-2.36
2022-11-20T08:23:24.103Z,-2.26
2022-11-20T08:25:52.000Z,-2.32
2022-11-20T08:28:21.888Z,-2.24
2022-11-20T08:30:49.233Z,-2.29
2022-11-20T08:33:15.899Z,-2.32
2022-11-20T08:35:43.478Z,-2.28
2022-11-20T08:38:10.327Z,-2.28
2022-11-20T08:40:36.816Z,-2.24
2022-11-20T08:43:03.324Z,-2.14
2022-11-20T08:45:34.149Z,-2.18
2022-11-20T08:48:04.732Z,-2.20
2022-11-20T08:50:34.993Z,-2.07
2022-11-20T08:53:05.422Z,-2.09
2022-11-20T08:55:32.040Z,-1.95
2022-11-20T08:57:58.695Z,-2.09
2022-11-20T09:00:25.435Z,-2.16
2022-11-20T09:02:53.295Z,-2.06
2022-11-20T09:05:19.777Z,-1.95
2022-11-20T09:07:46.254Z,-1.70
2022-11-20T09:10:28.396Z,-1.78
2022-11-20T09:12:58.652Z,-1.85
2022-11-20T09:15:26.327Z,-1.78
2022-11-20T09:18:00.466Z,-1.62
2022-11-20T09:20:30.137Z,-1.60
2022-11-20T09:22:57.694Z,-1.53
2022-11-20T09:25:24.825Z,-1.32
2022-11-20T09:28:00.840Z,-1.44
2022-11-20T09:30:29.013Z,-1.43
2022-11-20T09:32:55.863Z,-1.43
2022-11-20T09:35:22.691Z,-1.29
2022-11-20T09:37:49.266Z,-1.21
2022-11-20T09:40:30.368Z,-1.21
2022-11-20T09:43:14.523Z,-1.17
2022-11-20T09:46:06.132Z,-1.13
2022-11-20T09:48:37.639Z,-1.24
2022-11-20T09:51:14.682Z,-1.17
2022-11-20T09:53:51.817Z,-1.09
2022-11-20T09:56:22.810Z,-1.02
2022-11-20T09:58:55.622Z,-1.00
2022-11-20T10:01:27.243Z,-1.00
2022-11-20T10:04:05.874Z,-1.05
2022-11-20T10:06:33.937Z,-0.96
2022-11-20T10:09:12.642Z,-0.93
2022-11-20T10:11:57.671Z,-0.98
2022-11-20T10:15:03.023Z,-0.81
2022-11-20T10:17:41.594Z,-0.91
2022-11-20T10:20:26.352Z,-0.98
2022-11-20T10:23:25.744Z,-0.94
2022-11-20T10:26:34.060Z,-0.89
2022-11-20T10:29:14.936Z,-0.84
2022-11-20T10:31:44.624Z,-0.79
2022-11-20T10:34:39.853Z,-0.77
2022-11-20T10:37:17.050Z,-0.67
2022-11-20T10:39:55.420Z,-0.71
2022-11-20T10:42:34.701Z,-0.69
2022-11-20T10:45:22.471Z,-0.84
2022-11-20T10:47:49.570Z,-0.63
2022-11-20T10:50:22.950Z,-0.63
2022-11-20T10:53:01.868Z,-0.68
2022-11-20T10:55:59.638Z,-0.69
2022-11-20T10:58:44.788Z,-0.49
2022-11-20T11:01:23.213Z,-0.54
2022-11-20T11:03:52.959Z,-0.52
2022-11-20T11:06:25.729Z,-0.31
2022-11-20T11:08:56.252Z,-0.39
2022-11-20T11:11:24.763Z,-0.45
2022-11-20T11:13:52.111Z,-0.44
2022-11-20T11:16:28.361Z,-0.38
2022-11-20T11:19:12.548Z,-0.30
2022-11-20T11:21:44.378Z,-0.23
2022-11-20T11:24:43.924Z,-0.29
2022-11-20T11:27:18.027Z,-0.37
2022-11-20T11:29:45.346Z,-0.30
2022-11-20T11:32:23.138Z,-0.27
2022-11-20T11:35:03.578Z,-0.26
2022-11-20T11:37:39.479Z,-0.39
2022-11-20T11:40:24.731Z,-0.26
2022-11-20T11:43:00.709Z,-0.25
2022-11-20T11:45:27.949Z,-0.07
2022-11-20T11:47:59.017Z,0.06
2022-11-20T11:50:27.463Z,0.20
2022-11-20T11:53:16.614Z,0.11
2022-11-20T11:55:53.369Z,0.10
2022-11-20T11:58:56.412Z,0.18
2022-11-20T12:01:41.839Z,0.09
2022-11-20T12:04:17.759Z,0.10
2022-11-20T12:07:18.296Z,0.15
2022-11-20T12:09:53.431Z,0.07
2022-11-20T12:12:25.931Z,0.18
2022-11-20T12:14:55.625Z,0.14
2022-11-20T12:17:22.312Z,0.30
2022-11-20T12:19:48.896Z,0.60
2022-11-20T12:22:30.517Z,0.68
2022-11-20T12:25:14.008Z,0.92
2022-11-20T12:27:53.272Z,0.97
2022-11-20T12:30:22.171Z,0.89
2022-11-20T12:32:48.581Z,0.76
2022-11-20T12:35:36.582Z,0.62
2022-11-20T12:38:30.374Z,0.68
2022-11-20T12:40:56.865Z,0.63
2022-11-20T12:43:45.424Z,0.52
2022-11-20T12:46:12.193Z,0.54
2022-11-20T12:48:46.046Z,0.59
2022-11-20T12:51:31.217Z,0.70
2022-11-20T12:53:57.592Z,0.70
2022-11-20T12:56:45.515Z,0.77
2022-11-20T12:59:24.805Z,0.91
2022-11-20T13:02:19.616Z,0.90
2022-11-20T13:05:18.849Z,0.95
2022-11-20T13:07:46.763Z,0.93
2022-11-20T13:10:27.984Z,0.81
2022-11-20T13:13:02.592Z,0.81
2022-11-20T13:15:43.350Z,0.92
2022-11-20T13:18:12.253Z,0.96
2022-11-20T13:20:44.634Z,0.90
2022-11-20T13:23:11.477Z,0.93
2022-11-20T13:25:40.265Z,0.91
2022-11-20T13:28:09.851Z,0.96
2022-11-20T13:30:37.599Z,0.92
2022-11-20T13:33:06.852Z,0.96
2022-11-20T13:35:37.484Z,1.00
2022-11-20T13:38:10.435Z,1.03
2022-11-20T13:40:51.259Z,0.88
2022-11-20T13:43:22.364Z,0.94
2022-11-20T13:45:59.957Z,0.88
2022-11-20T13:48:42.364Z,0.81
2022-11-20T13:51:31.848Z,0.73
2022-11-20T13:54:06.536Z,0.81
2022-11-20T13:57:24.735Z,0.80
2022-11-20T13:59:54.188Z,0.91
2022-11-20T14:02:23.245Z,0.83
2022-11-20T14:04:53.742Z,0.78
2022-11-20T14:07:24.866Z,0.81
2022-11-20T14:09:56.573Z,0.75
2022-11-20T14:12:29.637Z,0.76
2022-11-20T14:14:56.533Z,0.76
2022-11-20T14:17:36.586Z,0.73
2022-11-20T14:20:07.312Z,0.70
2022-11-20T14:22:33.841Z,0.62
2022-11-20T14:25:20.041Z,0.60
2022-11-20T14:27:53.208Z,0.63
2022-11-20T14:30:23.687Z,0.64
2022-11-20T14:32:51.795Z,0.66
2022-11-20T14:35:29.994Z,0.67
2022-11-20T14:37:57.736Z,0.63
2022-11-20T14:40:24.839Z,0.55
2022-11-20T14:42:51.401Z,0.56
2022-11-20T14:45:19.221Z,0.55
2022-11-20T14:47:46.631Z,0.52
2022-11-20T14:50:25.239Z,0.48
2022-11-20T14:52:56.702Z,0.42
2022-11-20T14:55:38.201Z,0.41
2022-11-20T14:58:08.303Z,0.40
2022-11-20T15:00:36.001Z,0.39
2022-11-20T15:03:16.505Z,0.34
2022-11-20T15:05:49.759Z,0.28
2022-11-20T15:08:17.319Z,0.24
2022-11-20T15:10:51.511Z,0.19
2022-11-20T15:13:33.374Z,0.17
2022-11-20T15:16:02.558Z,0.17
2022-11-20T15:18:33.132Z,0.16
2022-11-20T15:21:04.659Z,0.13
2022-11-20T15:23:31.196Z,0.10
2022-11-20T15:25:57.785Z,0.10
2022-11-20T15:28:31.359Z,0.10
2022-11-20T15:30:58.096Z,0.07
2022-11-20T15:33:24.825Z,0.01
2022-11-20T15:35:51.431Z,-0.06
2022-11-20T15:38:17.860Z,-0.09
2022-11-20T15:40:44.386Z,-0.17
2022-11-20T15:43:13.655Z,-0.26
2022-11-20T15:45:53.880Z,-0.33
2022-11-20T15:48:23.255Z,-0.35
2022-11-20T15:51:08.367Z,-0.39
2022-11-20T15:53:34.907Z,-0.42
2022-11-20T15:56:02.633Z,-0.44
2022-11-20T15:58:29.191Z,-0.47
2022-11-20T16:00:56.067Z,-0.50
2022-11-20T16:03:23.503Z,-0.54
2022-11-20T16:05:50.133Z,-0.57
2022-11-20T16:08:16.692Z,-0.63
2022-11-20T16:10:43.196Z,-0.68
2022-11-20T16:13:36.985Z,-0.62
2022-11-20T16:16:24.103Z,-0.79
2022-11-20T16:18:51.172Z,-0.89
2022-11-20T16:21:18.049Z,-0.94
2022-11-20T16:23:44.572Z,-0.95
2022-11-20T16:26:17.663Z,-0.96
2022-11-20T16:28:44.788Z,-0.96
2022-11-20T16:31:37.009Z,-0.95
2022-11-20T16:34:11.991Z,-0.93
2022-11-20T16:36:43.376Z,-0.96
2022-11-20T16:39:10.187Z,-0.96
2022-11-20T16:41:37.300Z,-0.94
2022-11-20T16:44:10.373Z,-0.86
2022-11-20T16:46:37.818Z,-0.78
2022-11-20T16:49:06.779Z,-0.75
2022-11-20T16:51:36.320Z,-0.74
2022-11-20T16:54:05.317Z,-0.75
2022-11-20T16:56:31.921Z,-0.86
2022-11-20T16:59:00.250Z,-0.87
2022-11-20T17:01:29.950Z,-0.84
2022-11-20T17:04:02.640Z,-0.84
2022-11-20T17:06:32.173Z,-0.82
2022-11-20T17:08:59.394Z,-0.84
2022-11-20T17:11:27.730Z,-0.83
2022-11-20T17:14:00.657Z,-0.83
2022-11-20T17:16:28.136Z,-0.87
2022-11-20T17:19:01.077Z,-0.87
2022-11-20T17:21:32.392Z,-0.87
2022-11-20T17:24:04.613Z,-0.87
2022-11-20T17:26:32.023Z,-0.89
2022-11-20T17:29:04.620Z,-0.89
2022-11-20T17:31:33.316Z,-0.94
2022-11-20T17:34:00.394Z,-0.96
2022-11-20T17:36:28.430Z,-1.00
2022-11-20T17:38:55.347Z,-1.02
2022-11-20T17:41:23.479Z,-1.02
2022-11-20T17:43:55.407Z,-1.01
2022-11-20T17:46:24.951Z,-0.99
2022-11-20T17:48:52.096Z,-0.89
2022-11-20T17:51:22.734Z,-0.89
2022-11-20T17:53:55.024Z,-0.96
2022-11-20T17:56:40.575Z,-0.93
2022-11-20T17:59:09.540Z,-1.01
2022-11-20T18:01:36.497Z,-1.08
2022-11-20T18:04:03.749Z,-1.09
2022-11-20T18:06:31.217Z,-1.08
2022-11-20T18:09:00.307Z,-1.08
2022-11-20T18:11:30.422Z,-1.08
2022-11-20T18:14:17.323Z,-1.07
2022-11-20T18:16:52.205Z,-1.09
2022-11-20T18:19:21.903Z,-1.17
2022-11-20T18:21:48.476Z,-1.22
2022-11-20T18:24:15.202Z,-1.20
2022-11-20T18:26:44.488Z,-1.18
2022-11-20T18:29:13.578Z,-1.14
2022-11-20T18:31:41.050Z,-1.13
2022-11-20T18:34:11.548Z,-1.14
2022-11-20T18:36:38.820Z,-1.13
2022-11-20T18:39:05.359Z,-1.16
2022-11-20T18:41:50.528Z,-1.13
2022-11-20T18:44:38.813Z,-1.11
2022-11-20T18:47:13.953Z,-1.10
2022-11-20T18:49:40.865Z,-1.15
2022-11-20T18:52:08.376Z,-1.12
2022-11-20T18:54:36.649Z,-1.07
2022-11-20T18:57:04.112Z,-1.04
2022-11-20T18:59:31.273Z,-1.19
2022-11-20T19:01:58.209Z,-1.16
2022-11-20T19:04:25.451Z,-1.12
2022-11-20T19:06:56.102Z,-1.06
2022-11-20T19:09:24.279Z,-1.05
2022-11-20T19:11:52.094Z,-1.05
2022-11-20T19:14:18.757Z,-1.16
2022-11-20T19:16:45.388Z,-1.16
2022-11-20T19:19:12.518Z,-1.11
2022-11-20T19:21:39.100Z,-1.04
2022-11-20T19:24:05.700Z,-1.12
2022-11-20T19:26:34.953Z,-1.08
2022-11-20T19:29:05.067Z,-1.14
2022-11-20T19:31:32.011Z,-1.09
2022-11-20T19:34:01.137Z,-1.06
2022-11-20T19:36:44.383Z,-1.01
2022-11-20T19:39:11.794Z,-0.98
2022-11-20T19:41:40.163Z,-0.93
2022-11-20T19:44:15.198Z,-0.72
2022-11-20T19:46:42.008Z,-0.80
2022-11-20T19:49:11.177Z,-0.82
2022-11-20T19:51:43.411Z,-0.73
2022-11-20T19:54:09.999Z,-0.82
2022-11-20T19:56:36.687Z,-0.71
2022-11-20T19:59:03.231Z,-0.80
2022-11-20T20:01:31.651Z,-0.78
2022-11-20T20:04:05.254Z,-0.82
2022-11-20T20:06:34.092Z,-0.75
2022-11-20T20:09:04.210Z,-0.65
2022-11-20T20:11:32.843Z,-0.70
2022-11-20T20:14:03.758Z,-0.64
2022-11-20T20:16:30.644Z,-0.68
2022-11-20T20:19:02.669Z,-0.63
2022-11-20T20:21:31.905Z,-0.69
2022-11-20T20:23:59.531Z,-0.71
2022-11-20T20:26:28.709Z,-0.72
2022-11-20T20:28:55.720Z,-0.67
2022-11-20T20:31:25.286Z,-0.71
2022-11-20T20:33:51.884Z,-0.62
2022-11-20T20:36:20.041Z,-0.62
2022-11-20T20:38:47.262Z,-0.40
2022-11-20T20:41:14.770Z,-0.64
2022-11-20T20:43:59.872Z,-0.59
2022-11-20T20:46:26.375Z,-0.64
2022-11-20T20:48:54.840Z,-0.66
2022-11-20T20:51:22.765Z,-0.66
2022-11-20T20:53:50.181Z,-0.66
2022-11-20T20:56:17.531Z,-0.63
2022-11-20T20:58:44.390Z,-0.64
2022-11-20T21:01:15.744Z,-0.60
2022-11-20T21:03:42.799Z,-0.60
2022-11-20T21:06:10.838Z,-0.61
2022-11-20T21:08:40.748Z,-0.62
2022-11-20T21:11:10.597Z,-0.45
2022-11-20T21:13:38.070Z,-0.48
2022-11-20T21:16:04.843Z,-0.58
2022-11-20T21:18:32.073Z,-0.64
2022-11-20T21:21:17.354Z,-0.57
2022-11-20T21:23:47.780Z,-0.59
2022-11-20T21:26:16.043Z,-0.59
2022-11-20T21:28:43.141Z,-0.62
2022-11-20T21:31:15.327Z,-0.45
2022-11-20T21:33:43.979Z,-0.57
2022-11-20T21:36:13.034Z,-0.61
2022-11-20T21:38:39.560Z,-0.55
2022-11-20T21:41:08.376Z,-0.36
2022-11-20T21:43:35.605Z,-0.54
2022-11-20T21:46:09.804Z,-0.58
2022-11-20T21:48:37.983Z,-0.43
2022-11-20T21:51:09.534Z,-0.44
2022-11-20T21:53:36.470Z,-0.45
2022-11-20T21:56:04.326Z,-0.38
2022-11-20T21:58:31.251Z,-0.45
2022-11-20T22:00:57.979Z,-0.52
2022-11-20T22:03:25.130Z,-0.53
2022-11-20T22:05:56.593Z,-0.58
2022-11-20T22:08:26.801Z,-0.61
2022-11-20T22:11:12.294Z,-0.50
2022-11-20T22:13:58.132Z,-0.59
2022-11-20T22:16:25.292Z,-0.50
2022-11-20T22:18:54.095Z,-0.59
2022-11-20T22:21:24.021Z,-0.51
2022-11-20T22:23:51.033Z,-0.63
2022-11-20T22:26:19.743Z,-0.53
2022-11-20T22:28:50.637Z,-0.57
2022-11-20T22:31:18.629Z,-0.57
2022-11-20T22:33:45.470Z,-0.55
2022-11-20T22:36:14.190Z,-0.46
2022-11-20T22:38:40.781Z,-0.53
2022-11-20T22:41:28.225Z,-0.59
2022-11-20T22:43:56.621Z,-0.58
2022-11-20T22:46:24.396Z,-0.57
2022-11-20T22:48:52.136Z,-0.58
2022-11-20T22:51:20.704Z,-0.42
2022-11-20T22:53:47.677Z,-0.52
2022-11-20T22:56:15.269Z,-0.42
2022-11-20T22:58:44.414Z,-0.40
2022-11-20T23:01:15.285Z,-0.46
2022-11-20T23:03:46.437Z,-0.33
2022-11-20T23:06:13.547Z,-0.48
2022-11-20T23:08:41.570Z,-0.42
2022-11-20T23:11:11.817Z,-0.54
2022-11-20T23:13:38.815Z,-0.58
2022-11-20T23:16:11.594Z,-0.50
2022-11-20T23:18:38.266Z,-0.58
2022-11-20T23:21:06.555Z,-0.56
2022-11-20T23:23:33.603Z,-0.50
2022-11-20T23:26:08.891Z,-0.45
2022-11-20T23:28:35.596Z,-0.56
2022-11-20T23:31:02.650Z,-0.50
2022-11-20T23:33:29.956Z,-0.52
2022-11-20T23:35:56.608Z,-0.60
2022-11-20T23:38:23.317Z,-0.64
2022-11-20T23:40:51.585Z,-0.58
2022-11-20T23:43:20.463Z,-0.49
2022-11-20T23:45:52.211Z,-0.50
2022-11-20T23:48:19.852Z,-0.50
2022-11-20T23:50:46.641Z,-0.44
2022-11-20T23:53:14.460Z,-0.48
2022-11-20T23:55:46.163Z,-0.41
2022-11-20T23:58:13.568Z,-0.36
